createdAt,value
2022-09-12T00:01:51.722Z,9.55
2022-09-12T00:06:53.890Z,9.51
2022-09-12T00:11:55.471Z,9.46
2022-09-12T00:16:59.220Z,9.41
2022-09-12T00:22:01.790Z,9.39
2022-09-12T00:27:03.524Z,9.35
2022-09-12T00:32:05.140Z,9.30
2022-09-12T00:37:06.743Z,9.25
2022-09-12T00:42:11.140Z,9.26
2022-09-12T00:47:33.312Z,9.26
2022-09-12T00:52:57.434Z,9.25
2022-09-12T00:58:28.615Z,9.23
2022-09-12T01:03:30.588Z,9.16
2022-09-12T01:08:36.710Z,9.14
2022-09-12T01:13:38.946Z,9.12
2022-09-12T01:19:47.960Z,9.14
2022-09-12T01:25:35.075Z,9.17
2022-09-12T01:30:55.501Z,9.21
2022-09-12T01:36:30.562Z,9.20
2022-09-12T01:42:10.383Z,9.18
2022-09-12T01:47:22.094Z,9.15
2022-09-12T01:52:53.292Z,9.14
2022-09-12T01:58:10.440Z,9.14
2022-09-12T02:03:19.911Z,9.15
2022-09-12T02:08:44.598Z,9.16
2022-09-12T02:13:56.956Z,9.14
2022-09-12T02:19:15.287Z,9.17
2022-09-12T02:24:19.016Z,9.18
2022-09-12T02:29:20.649Z,9.18
2022-09-12T02:34:49.036Z,9.18
2022-09-12T02:39:53.797Z,9.21
2022-09-12T02:44:56.949Z,9.26
2022-09-12T02:49:59.785Z,9.36
2022-09-12T02:55:04.703Z,9.51
2022-09-12T03:00:08.631Z,9.56
2022-09-12T03:05:32.348Z,9.60
2022-09-12T03:10:42.659Z,9.61
2022-09-12T03:16:15.515Z,9.61
2022-09-12T03:22:00.616Z,9.59
2022-09-12T03:27:31.049Z,9.61
2022-09-12T03:32:50.636Z,9.64
2022-09-12T03:37:52.826Z,9.66
2022-09-12T03:42:54.445Z,9.69
2022-09-12T03:47:56.147Z,9.75
2022-09-12T03:53:02.360Z,9.81
2022-09-12T03:58:04.030Z,9.88
2022-09-12T04:03:05.525Z,9.92
2022-09-12T04:08:07.057Z,9.97
2022-09-12T04:13:08.602Z,10.00
2022-09-12T04:18:10.228Z,10.04
2022-09-12T04:23:11.803Z,10.13
2022-09-12T04:28:13.349Z,10.20
2022-09-12T04:33:15.421Z,10.21
2022-09-12T04:38:16.960Z,10.29
2022-09-12T04:43:18.497Z,10.38
2022-09-12T04:48:20.024Z,10.48
2022-09-12T04:53:21.619Z,10.57
2022-09-12T04:58:23.108Z,10.60
2022-09-12T05:03:24.580Z,10.66
2022-09-12T05:08:26.096Z,10.69
2022-09-12T05:13:27.980Z,10.69
2022-09-12T05:18:32.822Z,10.72
2022-09-12T05:23:35.821Z,10.67
2022-09-12T05:28:38.724Z,10.64
2022-09-12T05:33:43.394Z,10.66
2022-09-12T05:38:46.470Z,10.71
2022-09-12T05:43:53.547Z,10.85
2022-09-12T05:48:56.930Z,10.94
2022-09-12T05:54:02.678Z,11.04
2022-09-12T05:59:19.878Z,11.15
2022-09-12T06:04:23.182Z,11.28
2022-09-12T06:09:25.190Z,11.41
2022-09-12T06:14:26.830Z,11.53
2022-09-12T06:19:28.626Z,11.60
2022-09-12T06:24:30.400Z,11.69
2022-09-12T06:29:34.814Z,11.81
2022-09-12T06:34:36.487Z,11.97
2022-09-12T06:39:38.606Z,12.11
2022-09-12T06:44:40.745Z,12.25
2022-09-12T06:49:42.472Z,12.41
2022-09-12T06:54:44.162Z,12.64
2022-09-12T06:59:45.676Z,12.81
2022-09-12T07:04:49.476Z,13.00
2022-09-12T07:09:53.261Z,13.16
2022-09-12T07:14:55.155Z,13.24
2022-09-12T07:19:59.006Z,13.56
2022-09-12T07:25:04.933Z,13.59
2022-09-12T07:30:07.280Z,13.70
2022-09-12T07:35:09.038Z,13.91
2022-09-12T07:40:10.722Z,13.91
2022-09-12T07:45:12.373Z,14.11
2022-09-12T07:50:14.081Z,14.26
2022-09-12T07:55:16.035Z,14.17
2022-09-12T08:00:19.010Z,14.25
2022-09-12T08:05:20.499Z,14.52
2022-09-12T08:10:22.079Z,14.49
2022-09-12T08:15:24.401Z,14.66
2022-09-12T08:20:28.421Z,14.69
2022-09-12T08:25:30.616Z,14.54
2022-09-12T08:30:32.178Z,14.43
2022-09-12T08:35:33.738Z,14.52
2022-09-12T08:41:06.016Z,14.50
2022-09-12T08:46:21.123Z,14.51
2022-09-12T08:51:23.865Z,14.46
2022-09-12T08:56:31.785Z,14.39
2022-09-12T09:01:44.972Z,14.55
2022-09-12T09:07:07.996Z,14.58
2022-09-12T09:12:58.347Z,14.74
2022-09-12T09:18:16.404Z,15.01
2022-09-12T09:23:34.396Z,15.44
2022-09-12T09:28:44.525Z,15.56
2022-09-12T09:33:57.521Z,16.14
2022-09-12T09:39:29.446Z,16.15
2022-09-12T09:44:32.025Z,16.04
2022-09-12T09:49:35.619Z,15.82
2022-09-12T09:54:53.775Z,15.95
2022-09-12T09:59:55.464Z,15.91
2022-09-12T10:04:59.167Z,15.82
2022-09-12T10:10:15.765Z,15.97
2022-09-12T10:15:21.800Z,16.27
2022-09-12T10:20:42.276Z,16.35
2022-09-12T10:25:55.848Z,16.51
2022-09-12T10:30:59.392Z,16.25
2022-09-12T10:36:01.915Z,16.15
2022-09-12T10:41:09.025Z,16.08
2022-09-12T10:46:27.882Z,16.39
2022-09-12T10:51:29.973Z,16.52
2022-09-12T10:56:59.669Z,16.43
2022-09-12T11:02:18.835Z,16.30
2022-09-12T11:07:55.140Z,16.42
2022-09-12T11:13:19.708Z,16.45
2022-09-12T11:18:45.922Z,16.44
2022-09-12T11:24:21.754Z,16.89
2022-09-12T11:30:00.909Z,17.49
2022-09-12T11:35:28.247Z,17.53
2022-09-12T11:40:55.128Z,17.83
2022-09-12T11:46:26.882Z,17.96
2022-09-12T11:52:10.612Z,16.96
2022-09-12T11:57:49.740Z,16.62
2022-09-12T12:03:06.542Z,16.57
2022-09-12T12:08:11.712Z,16.99
2022-09-12T12:13:53.870Z,17.29
2022-09-12T12:19:10.707Z,16.99
2022-09-12T12:24:21.905Z,16.69
2022-09-12T12:29:23.289Z,16.65
2022-09-12T12:34:33.578Z,16.43
2022-09-12T12:39:37.924Z,16.69
2022-09-12T12:44:46.698Z,17.52
2022-09-12T12:50:09.562Z,18.10
2022-09-12T12:55:23.226Z,18.16
2022-09-12T13:00:24.820Z,17.45
2022-09-12T13:05:30.135Z,16.93
2022-09-12T13:10:35.273Z,16.55
2022-09-12T13:15:36.806Z,16.28
2022-09-12T13:21:01.150Z,16.20
2022-09-12T13:26:21.451Z,16.53
2022-09-12T13:31:30.056Z,17.16
2022-09-12T13:37:08.066Z,17.80
2022-09-12T13:42:28.453Z,18.08
2022-09-12T13:47:41.501Z,17.74
2022-09-12T13:52:49.940Z,17.46
2022-09-12T13:58:26.460Z,17.21
2022-09-12T14:03:58.890Z,16.84
2022-09-12T14:09:01.619Z,16.63
2022-09-12T14:14:16.656Z,16.53
2022-09-12T14:19:20.306Z,16.45
2022-09-12T14:24:23.689Z,16.28
2022-09-12T14:29:26.803Z,16.15
2022-09-12T14:34:29.475Z,16.36
2022-09-12T14:39:42.384Z,16.36
2022-09-12T14:44:55.823Z,16.20
2022-09-12T14:49:57.558Z,15.96
2022-09-12T14:55:20.720Z,16.06
2022-09-12T15:00:23.171Z,16.39
2022-09-12T15:05:27.310Z,16.62
2022-09-12T15:10:37.059Z,16.71
2022-09-12T15:15:45.350Z,16.71
2022-09-12T15:20:51.536Z,16.71
2022-09-12T15:25:53.187Z,16.70
2022-09-12T15:30:56.868Z,16.61
2022-09-12T15:35:59.035Z,16.42
2022-09-12T15:41:00.628Z,16.36
2022-09-12T15:46:06.166Z,16.27
2022-09-12T15:51:18.018Z,16.19
2022-09-12T15:56:21.742Z,16.06
2022-09-12T16:01:23.490Z,15.95
2022-09-12T16:06:27.280Z,15.82
2022-09-12T16:11:28.884Z,15.71
2022-09-12T16:16:31.436Z,15.53
2022-09-12T16:21:32.929Z,15.40
2022-09-12T16:26:34.980Z,15.25
2022-09-12T16:31:37.926Z,15.11
2022-09-12T16:36:39.484Z,14.98
2022-09-12T16:41:42.141Z,14.82
2022-09-12T16:46:43.690Z,14.64
2022-09-12T16:51:47.012Z,14.46
2022-09-12T16:56:49.408Z,14.29
2022-09-12T17:01:51.588Z,14.12
2022-09-12T17:06:53.401Z,13.94
2022-09-12T17:11:55.950Z,13.74
2022-09-12T17:16:57.513Z,13.57
2022-09-12T17:21:59.484Z,13.43
2022-09-12T17:27:01.433Z,13.29
2022-09-12T17:32:03.119Z,13.10
2022-09-12T17:37:04.734Z,12.86
2022-09-12T17:42:07.343Z,12.67
2022-09-12T17:47:08.847Z,12.56
2022-09-12T17:52:11.409Z,12.44
2022-09-12T17:57:12.938Z,12.26
2022-09-12T18:02:15.672Z,12.09
2022-09-12T18:07:19.409Z,11.89
2022-09-12T18:12:21.053Z,11.71
2022-09-12T18:17:22.783Z,11.55
2022-09-12T18:22:24.538Z,11.48
2022-09-12T18:27:26.136Z,11.50
2022-09-12T18:32:27.674Z,11.59
2022-09-12T18:37:29.242Z,11.74
2022-09-12T18:42:30.737Z,11.90
2022-09-12T18:47:32.335Z,11.85
2022-09-12T18:52:33.853Z,11.81
2022-09-12T18:57:35.382Z,11.79
2022-09-12T19:02:36.954Z,11.64
2022-09-12T19:07:38.605Z,11.56
2022-09-12T19:12:40.180Z,11.36
2022-09-12T19:17:41.716Z,11.00
2022-09-12T19:22:43.795Z,10.88
2022-09-12T19:27:45.313Z,10.74
2022-09-12T19:32:46.949Z,10.59
2022-09-12T19:37:48.502Z,10.41
2022-09-12T19:42:50.125Z,10.33
2022-09-12T19:47:51.692Z,10.20
2022-09-12T19:52:53.346Z,10.14
2022-09-12T19:57:55.026Z,10.16
2022-09-12T20:02:56.552Z,10.13
2022-09-12T20:07:59.044Z,10.10
2022-09-12T20:13:00.618Z,10.07
2022-09-12T20:18:02.170Z,9.80
2022-09-12T20:23:03.733Z,9.61
2022-09-12T20:28:05.251Z,9.48
2022-09-12T20:33:06.785Z,9.34
2022-09-12T20:38:09.106Z,9.31
2022-09-12T20:43:10.621Z,9.33
2022-09-12T20:48:12.074Z,9.29
2022-09-12T20:53:14.212Z,9.19
2022-09-12T20:58:16.057Z,9.08
2022-09-12T21:03:17.939Z,9.02
2022-09-12T21:08:19.474Z,8.90
2022-09-12T21:13:20.959Z,8.75
2022-09-12T21:18:22.428Z,8.70
2022-09-12T21:23:25.835Z,8.65
2022-09-12T21:28:27.777Z,8.48
2022-09-12T21:33:29.583Z,8.46
2022-09-12T21:38:31.841Z,8.43
2022-09-12T21:43:34.221Z,8.46
2022-09-12T21:48:36.869Z,8.54
2022-09-12T21:54:52.706Z,8.63
2022-09-12T22:00:38.017Z,8.71
2022-09-12T22:06:35.762Z,8.76
2022-09-12T22:12:51.083Z,8.91
2022-09-12T22:18:39.817Z,9.04
2022-09-12T22:24:37.241Z,9.15
2022-09-12T22:36:43.734Z,9.13
2022-09-12T22:42:30.725Z,9.22
2022-09-12T22:48:16.533Z,9.31
2022-09-12T22:54:18.063Z,9.34
2022-09-12T22:59:45.129Z,9.26
2022-09-12T23:05:52.561Z,9.09
2022-09-12T23:11:46.129Z,8.89
2022-09-12T23:17:40.153Z,8.65
2022-09-12T23:23:50.044Z,8.38
2022-09-12T23:29:30.188Z,8.06
2022-09-12T23:34:35.625Z,7.90
2022-09-12T23:40:35.634Z,7.88
2022-09-12T23:46:50.146Z,7.76
2022-09-12T23:52:57.754Z,7.71
2022-09-12T23:59:13.586Z,7.47
